Time;durP1;ratioP1;P1;durP2;ratioP2;P2;SDS_P1;SDS_P2;PMS_P1;PMS_P2;Temp;Humidity;BMP_temperature;BMP_pressure;BME280_temperature;BME280_humidity;BME280_pressure;Samples;Min_cycle;Max_cycle;Signal;HPM_P1;HPM_P2
2022/05/11 00:02:16;;;;;;;8.17;7.27;;;19.40;78.10;;;;;;7377822;19;20380;-48
2022/05/11 00:04:45;;;;;;;8.53;7.67;;;19.30;78.80;;;;;;7377405;19;20755;-49
2022/05/11 00:07:15;;;;;;;8.87;6.90;;;19.20;79.10;;;;;;7374990;19;20376;-48
2022/05/11 00:09:46;;;;;;;7.33;6.60;;;19.10;79.10;;;;;;7374401;19;20379;-50
2022/05/11 00:12:15;;;;;;;8.50;7.20;;;19.20;79.10;;;;;;7375270;19;20479;-48
2022/05/11 00:14:45;;;;;;;12.50;7.17;;;19.20;79.30;;;;;;7375988;19;20453;-47
2022/05/11 00:17:17;;;;;;;7.00;6.30;;;19.20;78.40;;;;;;7375482;19;20992;-48
2022/05/11 00:19:49;;;;;;;7.43;6.77;;;19.20;77.80;;;;;;7376183;19;20364;-48
2022/05/11 00:22:21;;;;;;;8.10;7.30;;;19.20;77.80;;;;;;7376317;19;20773;-48
2022/05/11 00:24:50;;;;;;;6.70;6.10;;;19.30;77.50;;;;;;7372304;19;20741;-47
2022/05/11 00:27:22;;;;;;;8.13;7.30;;;19.30;77.60;;;;;;7371473;19;20815;-48
2022/05/11 00:29:54;;;;;;;8.60;7.50;;;19.40;77.10;;;;;;7375334;19;20381;-47
2022/05/11 00:32:27;;;;;;;8.83;6.17;;;19.30;77.30;;;;;;7378185;19;20898;-49
2022/05/11 00:35:01;;;;;;;7.53;6.83;;;19.30;76.70;;;;;;7374188;19;20728;-47
2022/05/11 00:37:36;;;;;;;8.53;6.27;;;19.40;77.40;;;;;;7374913;19;20424;-48
2022/05/11 00:40:09;;;;;;;8.03;6.67;;;19.40;76.90;;;;;;7374784;19;20383;-48
2022/05/11 00:42:41;;;;;;;7.70;6.93;;;19.40;76.80;;;;;;7370343;19;20368;-48
2022/05/11 00:45:16;;;;;;;11.80;6.40;;;19.30;77.10;;;;;;7374339;19;20367;-48
2022/05/11 00:47:53;;;;;;;6.47;5.87;;;19.30;77.30;;;;;;7369794;19;20410;-47
2022/05/11 00:50:27;;;;;;;7.10;6.40;;;19.30;76.00;;;;;;7373274;19;20475;-47
2022/05/11 00:53:09;;;;;;;5.90;5.20;;;19.20;76.30;;;;;;7375157;19;20401;-45
2022/05/11 00:55:49;;;;;;;8.60;5.93;;;19.10;76.20;;;;;;7372805;19;20375;-46
2022/05/11 00:58:22;;;;;;;6.50;5.90;;;19.10;76.30;;;;;;7377582;19;20378;-46
2022/05/11 01:00:54;;;;;;;6.00;5.40;;;19.00;76.60;;;;;;7376750;19;20404;-46
2022/05/11 01:03:36;;;;;;;5.80;5.30;;;18.90;76.20;;;;;;7374867;19;20406;-45
2022/05/11 01:06:05;;;;;;;5.10;4.60;;;19.10;75.70;;;;;;7376645;19;21236;-47
2022/05/11 01:08:36;;;;;;;6.17;5.57;;;19.00;74.50;;;;;;7375310;19;20912;-46
2022/05/11 01:11:07;;;;;;;6.50;5.90;;;19.10;74.20;;;;;;7372929;19;20432;-46
2022/05/11 01:13:41;;;;;;;5.33;4.80;;;19.20;73.50;;;;;;7375097;19;20933;-46
2022/05/11 01:16:13;;;;;;;5.73;5.23;;;19.20;73.60;;;;;;7373902;19;20377;-46
2022/05/11 01:18:51;;;;;;;6.23;5.00;;;19.30;74.60;;;;;;7374698;19;20731;-46
2022/05/11 01:21:24;;;;;;;6.50;5.30;;;19.30;73.50;;;;;;7375384;19;20371;-39
2022/05/11 01:24:02;;;;;;;5.93;5.30;;;19.30;73.20;;;;;;7372191;19;20439;-39
2022/05/11 01:26:39;;;;;;;5.30;4.37;;;19.30;73.30;;;;;;7374159;19;20753;-39
2022/05/11 01:29:08;;;;;;;5.50;4.90;;;19.30;73.00;;;;;;7371783;19;20372;-39
2022/05/11 01:31:38;;;;;;;5.53;5.03;;;19.30;74.40;;;;;;7365560;19;20745;-39
2022/05/11 01:34:11;;;;;;;6.30;5.03;;;19.10;74.00;;;;;;7365862;19;21076;-39
2022/05/11 01:36:44;;;;;;;6.77;4.83;;;19.10;74.60;;;;;;7371490;19;20379;-39
2022/05/11 01:39:17;;;;;;;6.37;5.50;;;19.00;74.60;;;;;;7370217;19;20376;-39
2022/05/11 01:41:54;;;;;;;5.20;4.70;;;19.00;75.20;;;;;;7368631;19;20916;-39
2022/05/11 01:44:24;;;;;;;5.77;5.20;;;18.90;75.80;;;;;;7372418;19;20420;-39
2022/05/11 01:46:57;;;;;;;5.33;4.83;;;18.90;76.30;;;;;;7372722;19;20910;-39
2022/05/11 01:49:27;;;;;;;6.90;5.10;;;18.90;76.80;;;;;;7377088;19;20475;-47
2022/05/11 01:51:57;;;;;;;5.07;4.67;;;18.90;76.60;;;;;;7380425;19;20473;-49
2022/05/11 01:54:27;;;;;;;5.63;5.13;;;18.90;76.00;;;;;;7380106;19;20378;-48
2022/05/11 01:57:04;;;;;;;6.03;5.13;;;19.00;76.60;;;;;;7380986;19;20403;-47
2022/05/11 01:59:33;;;;;;;8.70;4.70;;;19.10;76.40;;;;;;7377518;19;20376;-48
2022/05/11 02:02:05;;;;;;;5.03;4.60;;;19.00;76.20;;;;;;7378350;19;20955;-47
2022/05/11 02:10:03;;;;;;;5.37;4.83;;;19.00;76.20;;;;;;7379804;19;20893;-47
2022/05/11 02:12:36;;;;;;;5.50;5.00;;;19.00;75.80;;;;;;7376077;19;20380;-48
2022/05/11 02:15:09;;;;;;;5.60;4.97;;;19.10;76.30;;;;;;7378617;19;20925;-48
2022/05/11 02:17:41;;;;;;;6.30;4.57;;;18.90;76.60;;;;;;7378806;19;20414;-48
2022/05/11 02:20:12;;;;;;;5.37;4.90;;;18.90;76.00;;;;;;7382317;19;20380;-46
2022/05/11 02:22:42;;;;;;;7.17;5.13;;;18.90;77.10;;;;;;7381399;19;20380;-45
2022/05/11 02:25:12;;;;;;;5.60;5.03;;;18.90;76.50;;;;;;7378852;19;20387;-46
2022/05/11 02:27:48;;;;;;;5.43;4.93;;;18.90;76.40;;;;;;7376868;19;20387;-45
2022/05/11 02:30:20;;;;;;;5.30;4.80;;;18.90;76.80;;;;;;7378161;19;20380;-45
2022/05/11 02:32:50;;;;;;;5.23;4.73;;;19.00;76.50;;;;;;7380216;19;20751;-46
2022/05/11 02:35:20;;;;;;;6.00;5.40;;;19.00;75.50;;;;;;7379559;19;20387;-45
2022/05/11 02:37:55;;;;;;;5.70;4.77;;;19.00;75.90;;;;;;7374851;19;20926;-46
2022/05/11 02:40:28;;;;;;;6.70;4.97;;;19.00;75.70;;;;;;7377227;19;20382;-45
2022/05/11 02:43:01;;;;;;;5.70;5.10;;;18.90;75.90;;;;;;7380204;19;20830;-46
2022/05/11 02:45:32;;;;;;;5.33;4.83;;;19.00;76.10;;;;;;7381209;19;20372;-46
2022/05/11 02:48:03;;;;;;;6.23;5.63;;;19.10;76.10;;;;;;7380527;19;20372;-46
2022/05/11 02:50:35;;;;;;;5.40;4.90;;;19.10;76.10;;;;;;7376935;19;20934;-45
2022/05/11 02:53:10;;;;;;;5.90;5.30;;;19.10;75.40;;;;;;7377782;19;20744;-46
2022/05/11 02:55:40;;;;;;;8.27;5.93;;;19.10;75.60;;;;;;7377564;19;20409;-47
2022/05/11 02:58:16;;;;;;;8.27;4.80;;;19.10;76.00;;;;;;7377366;19;20384;-46
2022/05/11 03:00:48;;;;;;;5.83;5.10;;;19.20;75.40;;;;;;7378649;19;20376;-47
2022/05/11 03:03:18;;;;;;;5.23;4.73;;;19.20;74.70;;;;;;7374864;19;20863;-47
2022/05/11 03:05:52;;;;;;;5.87;4.73;;;19.20;74.70;;;;;;7375376;19;20764;-47
2022/05/11 03:08:22;;;;;;;5.80;5.10;;;19.20;74.40;;;;;;7378124;19;20384;-48
2022/05/11 03:10:51;;;;;;;5.77;5.27;;;19.20;75.20;;;;;;7380934;19;20383;-48
2022/05/11 03:13:23;;;;;;;5.40;4.40;;;19.10;75.40;;;;;;7379049;19;20511;-47
2022/05/11 03:15:53;;;;;;;5.50;5.00;;;19.10;74.30;;;;;;7376443;19;20740;-48
2022/05/11 03:18:25;;;;;;;5.70;5.10;;;19.10;74.70;;;;;;7376692;19;20977;-48
2022/05/11 03:20:58;;;;;;;8.80;5.10;;;19.20;75.20;;;;;;7376663;19;20368;-48
2022/05/11 03:23:30;;;;;;;5.97;5.30;;;19.20;74.70;;;;;;7377976;19;20900;-48
2022/05/11 03:26:02;;;;;;;5.13;4.67;;;19.20;74.00;;;;;;7380424;19;21042;-47
2022/05/11 03:28:36;;;;;;;5.90;5.40;;;19.30;73.40;;;;;;7373885;19;21403;-48
2022/05/11 03:31:06;;;;;;;5.20;4.77;;;19.30;72.70;;;;;;7378646;19;20372;-48
2022/05/11 03:36:19;;;;;;;5.60;5.10;;;19.30;72.30;;;;;;7378267;19;20384;-48
2022/05/11 03:38:49;;;;;;;5.83;5.23;;;19.30;72.20;;;;;;7377422;19;20481;-48
2022/05/11 03:41:24;;;;;;;5.47;4.97;;;19.40;71.80;;;;;;7371770;19;20379;-48
2022/05/11 03:43:56;;;;;;;4.80;4.40;;;19.40;71.50;;;;;;7376044;19;20375;-47
2022/05/11 03:46:25;;;;;;;5.37;4.87;;;19.40;71.00;;;;;;7378277;19;20388;-49
2022/05/11 03:48:55;;;;;;;6.30;5.27;;;19.50;71.30;;;;;;7377212;19;20463;-48
2022/05/11 03:51:27;;;;;;;5.43;4.93;;;19.40;70.60;;;;;;7375184;19;20443;-49
2022/05/11 03:53:59;;;;;;;5.70;5.20;;;19.50;71.10;;;;;;7378017;19;20384;-48
2022/05/11 03:56:31;;;;;;;4.43;4.13;;;19.50;71.00;;;;;;7377493;19;20587;-47
2022/05/11 03:59:11;;;;;;;5.70;4.77;;;19.50;71.00;;;;;;7375971;19;20524;-48
2022/05/11 04:01:41;;;;;;;5.10;4.60;;;19.60;70.20;;;;;;7369767;19;20372;-47
2022/05/11 04:04:13;;;;;;;6.90;4.60;;;19.50;70.70;;;;;;7376570;19;20478;-47
2022/05/11 04:06:43;;;;;;;6.23;5.63;;;19.40;71.60;;;;;;7372985;19;20468;-49
2022/05/11 04:09:13;;;;;;;5.93;4.90;;;19.40;72.30;;;;;;7372451;19;20870;-48
2022/05/11 04:11:43;;;;;;;4.90;4.47;;;19.30;71.10;;;;;;7376066;19;20376;-47
2022/05/11 04:14:17;;;;;;;5.80;5.20;;;19.20;69.50;;;;;;7374490;19;20423;-48
2022/05/11 04:16:47;;;;;;;6.47;5.87;;;19.30;70.80;;;;;;7374403;19;20442;-48
2022/05/11 04:19:17;;;;;;;5.20;4.50;;;19.30;71.80;;;;;;7378937;19;20933;-48
2022/05/11 04:21:49;;;;;;;5.30;4.73;;;19.30;71.60;;;;;;7372360;19;20473;-48
2022/05/11 04:24:21;;;;;;;5.00;4.50;;;19.30;72.20;;;;;;7376326;19;20376;-54
2022/05/11 04:26:52;;;;;;;5.10;4.70;;;19.30;70.30;;;;;;7371612;19;20929;-48
2022/05/11 04:29:27;;;;;;;5.50;4.73;;;19.20;68.30;;;;;;7376181;19;20383;-47
2022/05/11 04:31:59;;;;;;;5.03;4.53;;;19.20;69.30;;;;;;7367940;19;20411;-48
2022/05/11 04:34:28;;;;;;;5.03;4.53;;;19.20;69.00;;;;;;7368184;19;20416;-49
2022/05/11 04:36:58;;;;;;;7.03;5.27;;;19.20;69.00;;;;;;7377043;19;20443;-49
2022/05/11 04:39:30;;;;;;;5.90;5.30;;;19.10;68.70;;;;;;7376555;19;20364;-48
2022/05/11 04:41:59;;;;;;;5.07;4.67;;;19.10;69.00;;;;;;7371299;19;20427;-48
2022/05/11 04:44:34;;;;;;;5.50;4.83;;;19.10;69.00;;;;;;7375823;19;21161;-48
2022/05/11 04:47:08;;;;;;;6.13;4.67;;;19.10;68.40;;;;;;7374357;19;20412;-49
2022/05/11 04:49:38;;;;;;;5.17;4.67;;;19.20;68.80;;;;;;7373239;19;20447;-48
2022/05/11 04:52:14;;;;;;;6.63;5.17;;;19.20;68.50;;;;;;7375987;19;20395;-47
2022/05/11 04:54:46;;;;;;;4.70;4.23;;;19.20;67.90;;;;;;7376577;19;20502;-49
2022/05/11 04:57:16;;;;;;;5.07;4.57;;;19.20;68.40;;;;;;7373805;19;20372;-48
2022/05/11 04:59:49;;;;;;;7.60;5.70;;;19.20;68.10;;;;;;7375731;19;20916;-39
2022/05/11 05:02:20;;;;;;;4.97;4.47;;;19.20;67.80;;;;;;7372902;19;20405;-39
2022/05/11 05:04:51;;;;;;;5.10;4.57;;;19.10;68.10;;;;;;7374653;19;20467;-39
2022/05/11 05:07:23;;;;;;;4.73;4.33;;;19.10;68.00;;;;;;7375069;19;20411;-39
2022/05/11 05:09:55;;;;;;;7.17;5.03;;;19.00;68.90;;;;;;7376388;19;20376;-39
2022/05/11 05:12:26;;;;;;;5.20;4.70;;;19.00;68.50;;;;;;7372509;19;20387;-39
2022/05/11 05:15:01;;;;;;;5.03;4.43;;;18.90;68.90;;;;;;7377336;19;20408;-39
2022/05/11 05:17:30;;;;;;;4.70;4.30;;;18.90;69.00;;;;;;7371551;19;20403;-39
2022/05/11 05:20:02;;;;;;;5.47;4.97;;;18.90;69.10;;;;;;7375667;19;20412;-39
2022/05/11 05:22:32;;;;;;;5.27;4.87;;;18.90;69.10;;;;;;7375877;19;20377;-39
2022/05/11 05:25:01;;;;;;;6.10;5.40;;;19.00;68.50;;;;;;7375331;19;20914;-39
2022/05/11 05:27:31;;;;;;;5.47;4.93;;;19.20;68.60;;;;;;7374026;19;20459;-39
2022/05/11 05:32:56;;;;;;;5.47;4.43;;;19.40;67.50;;;;;;7362771;19;20376;-48
2022/05/11 05:35:29;;;;;;;7.83;5.83;;;19.50;67.00;;;;;;7368462;19;20373;-47
2022/05/11 05:38:01;;;;;;;6.13;4.60;;;19.60;66.70;;;;;;7372003;19;20449;-48
2022/05/11 05:40:30;;;;;;;5.77;4.90;;;19.70;66.50;;;;;;7370460;19;20384;-48
2022/05/11 05:42:59;;;;;;;6.40;5.77;;;19.70;65.90;;;;;;7367840;19;20364;-48
2022/05/11 05:45:34;;;;;;;6.40;4.97;;;19.80;66.00;;;;;;7370531;19;20497;-48
2022/05/11 05:48:06;;;;;;;4.97;4.57;;;19.90;65.80;;;;;;7371938;19;20359;-49
2022/05/11 05:50:38;;;;;;;5.53;5.00;;;20.00;66.10;;;;;;7369528;19;20846;-48
2022/05/11 05:53:14;;;;;;;5.30;4.80;;;20.00;66.00;;;;;;7371687;19;20407;-48
2022/05/11 05:55:44;;;;;;;6.43;5.10;;;20.10;65.80;;;;;;7373053;19;20387;-48
2022/05/11 05:58:13;;;;;;;8.13;5.63;;;20.10;65.40;;;;;;7376767;19;20379;-48
2022/05/11 06:00:45;;;;;;;4.80;4.30;;;20.30;65.60;;;;;;7367010;19;20671;-49
2022/05/11 06:03:21;;;;;;;11.20;5.10;;;20.50;64.90;;;;;;7376663;19;20415;-48
2022/05/11 06:05:51;;;;;;;5.30;4.40;;;20.50;64.40;;;;;;7370980;19;20767;-49
2022/05/11 06:08:21;;;;;;;5.03;4.53;;;20.70;64.50;;;;;;7364638;19;20929;-48
2022/05/11 06:10:52;;;;;;;5.70;5.00;;;20.80;62.80;;;;;;7367194;19;20388;-47
2022/05/11 06:13:23;;;;;;;5.60;5.07;;;20.90;63.30;;;;;;7366749;19;21481;-48
2022/05/11 06:15:58;;;;;;;6.50;4.50;;;21.10;63.40;;;;;;7370176;19;20368;-48
2022/05/11 06:18:31;;;;;;;5.67;5.10;;;21.20;61.50;;;;;;7371843;19;20990;-48
2022/05/11 06:21:00;;;;;;;6.17;4.93;;;21.30;61.20;;;;;;7367571;19;20380;-48
2022/05/11 06:23:30;;;;;;;6.17;4.70;;;21.30;61.20;;;;;;7369111;19;20483;-48
2022/05/11 06:26:01;;;;;;;5.20;4.70;;;21.50;60.60;;;;;;7368048;19;20385;-48
2022/05/11 06:28:34;;;;;;;5.27;4.77;;;21.70;60.00;;;;;;7371353;19;20483;-48
2022/05/11 06:31:06;;;;;;;6.23;5.17;;;21.80;59.80;;;;;;7372458;19;20788;-48
2022/05/11 06:33:35;;;;;;;7.13;4.67;;;22.00;59.10;;;;;;7373518;19;20400;-48
2022/05/11 06:36:06;;;;;;;5.60;5.10;;;22.10;58.60;;;;;;7380654;19;20408;-48
2022/05/11 06:38:39;;;;;;;4.73;4.27;;;22.20;58.00;;;;;;7375651;19;20364;-48
2022/05/11 06:41:13;;;;;;;5.13;4.63;;;22.30;58.10;;;;;;7374769;19;20963;-47
2022/05/11 06:43:45;;;;;;;4.30;3.90;;;22.50;57.80;;;;;;7377381;19;20423;-49
2022/05/11 06:46:17;;;;;;;5.57;5.07;;;22.60;57.50;;;;;;7379125;19;20380;-48
2022/05/11 06:48:46;;;;;;;5.83;5.13;;;22.80;57.20;;;;;;7372705;19;20424;-48
2022/05/11 06:51:16;;;;;;;5.00;4.50;;;22.70;57.00;;;;;;7380412;19;20440;-48
2022/05/11 06:59:24;;;;;;;4.87;4.47;;;22.80;56.70;;;;;;7381553;19;20372;-48
2022/05/11 07:02:03;;;;;;;5.30;4.60;;;22.90;56.40;;;;;;7374082;19;20416;-46
2022/05/11 07:04:33;;;;;;;5.00;4.50;;;23.10;56.30;;;;;;7380285;19;20372;-46
2022/05/11 07:07:03;;;;;;;4.40;4.00;;;23.10;55.70;;;;;;7377618;19;20433;-46
2022/05/11 07:09:39;;;;;;;5.03;4.53;;;23.10;55.30;;;;;;7377904;19;20926;-46
2022/05/11 07:12:31;;;;;;;5.17;4.67;;;23.20;55.20;;;;;;7376870;19;20356;-46
2022/05/11 07:15:02;;;;;;;5.03;3.93;;;23.30;54.50;;;;;;7376254;19;20421;-46
2022/05/11 07:17:40;;;;;;;5.00;4.50;;;23.40;54.80;;;;;;7373290;19;20372;-46
2022/05/11 07:20:13;;;;;;;6.10;3.83;;;23.50;54.40;;;;;;7379782;19;20454;-46
2022/05/11 07:22:45;;;;;;;4.57;4.10;;;23.60;53.10;;;;;;7375580;19;20379;-46
2022/05/11 07:25:19;;;;;;;5.60;4.70;;;23.70;53.50;;;;;;7374344;19;20773;-46
2022/05/11 07:27:49;;;;;;;6.23;4.40;;;23.80;53.40;;;;;;7367490;19;20372;-46
2022/05/11 07:30:21;;;;;;;6.30;4.20;;;23.90;53.00;;;;;;7377035;19;20467;-48
2022/05/11 07:32:54;;;;;;;4.87;4.40;;;24.20;52.60;;;;;;7376126;19;20990;-47
2022/05/11 07:35:23;;;;;;;9.57;4.00;;;24.40;51.80;;;;;;7378271;19;20405;-48
2022/05/11 07:37:53;;;;;;;4.90;4.50;;;24.40;50.60;;;;;;7375137;19;20387;-48
2022/05/11 07:40:24;;;;;;;5.83;4.37;;;24.50;50.90;;;;;;7374299;19;20411;-48
2022/05/11 07:42:54;;;;;;;3.50;3.20;;;24.60;50.60;;;;;;7377044;19;20387;-48
2022/05/11 07:45:24;;;;;;;4.70;4.20;;;24.80;50.10;;;;;;7372918;19;20410;-49
2022/05/11 07:47:59;;;;;;;3.60;3.30;;;24.90;50.20;;;;;;7379597;19;20384;-48
2022/05/11 07:50:30;;;;;;;4.10;3.70;;;25.20;49.30;;;;;;7373233;19;21028;-48
2022/05/11 07:53:00;;;;;;;4.30;3.80;;;25.30;48.70;;;;;;7377384;19;20372;-48
2022/05/11 07:55:30;;;;;;;5.37;3.77;;;25.50;48.20;;;;;;7369937;19;20397;-48
2022/05/11 08:00:44;;;;;;;21.03;4.13;;;25.60;48.10;;;;;;7372620;19;20382;-40
2022/05/11 08:03:17;;;;;;;4.07;3.67;;;25.70;47.20;;;;;;7373669;19;20372;-40
2022/05/11 08:05:46;;;;;;;3.73;3.40;;;25.70;46.20;;;;;;7371761;19;21243;-40
2022/05/11 08:08:16;;;;;;;5.47;4.00;;;25.70;46.70;;;;;;7368542;19;20364;-40
2022/05/11 08:10:49;;;;;;;4.70;3.40;;;25.80;46.40;;;;;;7378456;19;20380;-40
2022/05/11 08:13:21;;;;;;;3.80;3.40;;;26.00;45.50;;;;;;7375753;19;20455;-40
2022/05/11 08:15:50;;;;;;;4.47;3.70;;;25.90;45.50;;;;;;7370152;19;20384;-40
2022/05/11 08:18:26;;;;;;;4.50;3.73;;;26.00;45.20;;;;;;7374446;19;20376;-42
2022/05/11 08:20:57;;;;;;;4.50;3.47;;;26.20;45.30;;;;;;7375326;19;20977;-42
2022/05/11 08:23:28;;;;;;;3.87;3.57;;;26.40;45.00;;;;;;7367304;19;20376;-42
2022/05/11 08:26:00;;;;;;;4.97;3.67;;;26.50;44.40;;;;;;7375838;19;20387;-42
2022/05/11 08:28:30;;;;;;;3.47;3.10;;;26.90;44.00;;;;;;7375511;19;20376;-42
2022/05/11 08:33:44;;;;;;;4.40;3.20;;;27.20;43.50;;;;;;7365101;19;20377;-49
2022/05/11 08:36:17;;;;;;;3.40;3.10;;;27.50;42.30;;;;;;7376127;19;20462;-49
2022/05/11 08:38:49;;;;;;;5.83;3.80;;;27.50;42.20;;;;;;7369037;19;20751;-49
2022/05/11 08:41:32;;;;;;;6.37;4.10;;;27.80;42.40;;;;;;7375288;19;20383;-48
2022/05/11 08:44:04;;;;;;;3.40;3.10;;;28.10;41.00;;;;;;7370117;19;20382;-47
2022/05/11 08:46:47;;;;;;;4.17;3.77;;;28.20;39.60;;;;;;7374065;19;20387;-49
2022/05/11 08:49:32;;;;;;;3.60;3.00;;;28.40;39.30;;;;;;7369517;19;20455;-49
2022/05/11 08:52:04;;;;;;;3.63;3.13;;;28.40;39.70;;;;;;7369367;19;20918;-49
2022/05/11 08:54:47;;;;;;;3.53;3.23;;;28.80;38.40;;;;;;7371053;19;20494;-48
2022/05/11 08:57:26;;;;;;;4.10;3.37;;;29.10;39.00;;;;;;7373990;19;20380;-47
2022/05/11 09:00:01;;;;;;;5.40;3.70;;;29.10;38.40;;;;;;7373741;19;20462;-47
2022/05/11 09:02:37;;;;;;;4.43;4.03;;;29.30;38.00;;;;;;7367313;19;20747;-46
2022/05/11 09:05:11;;;;;;;4.03;3.63;;;29.40;38.30;;;;;;7378043;19;20379;-46
2022/05/11 09:07:44;;;;;;;5.40;3.70;;;29.60;38.60;;;;;;7369354;19;20758;-46
2022/05/11 09:10:24;;;;;;;5.37;3.80;;;29.90;37.40;;;;;;7374972;19;20412;-47
2022/05/11 09:12:58;;;;;;;4.40;4.10;;;30.00;37.10;;;;;;7377428;19;20386;-46
2022/05/11 09:16:00;;;;;;;3.90;3.50;;;30.10;37.40;;;;;;7374573;19;20380;-45
2022/05/11 09:18:43;;;;;;;8.70;4.53;;;30.30;37.10;;;;;;7372380;19;20764;-48
2022/05/11 09:21:34;;;;;;;8.40;4.43;;;30.60;36.50;;;;;;7365504;19;20376;-48
2022/05/11 09:24:16;;;;;;;8.63;4.43;;;31.00;36.00;;;;;;7377122;19;20379;-48
2022/05/11 09:27:02;;;;;;;3.87;3.43;;;31.30;34.90;;;;;;7370141;19;20380;-48
2022/05/11 09:29:37;;;;;;;5.40;3.97;;;31.60;34.80;;;;;;7376721;19;20448;-49
2022/05/11 09:32:36;;;;;;;4.03;3.73;;;31.70;34.70;;;;;;7366755;19;20795;-48
2022/05/11 09:35:36;;;;;;;4.00;3.60;;;32.10;34.00;;;;;;7364413;19;20407;-48
2022/05/11 09:38:17;;;;;;;3.70;3.40;;;31.60;34.30;;;;;;7367845;19;20487;-47
2022/05/11 09:40:56;;;;;;;3.97;3.57;;;31.20;35.30;;;;;;7373175;19;20384;-48
2022/05/11 09:43:35;;;;;;;5.97;4.10;;;31.10;35.90;;;;;;7373360;19;20419;-49
2022/05/11 09:46:19;;;;;;;4.67;4.27;;;31.20;35.20;;;;;;7374227;19;20368;-49
2022/05/11 09:49:04;;;;;;;6.03;4.30;;;30.90;35.50;;;;;;7363074;19;20459;-46
2022/05/11 09:51:43;;;;;;;4.70;4.20;;;30.70;36.20;;;;;;7370543;19;20367;-49
2022/05/11 09:54:38;;;;;;;4.23;3.93;;;30.90;36.60;;;;;;7370435;19;20395;-47
2022/05/11 09:57:23;;;;;;;5.43;4.40;;;30.90;36.30;;;;;;7373717;19;20397;-46
2022/05/11 09:59:56;;;;;;;4.63;4.10;;;30.60;36.80;;;;;;7365654;19;20379;-48
2022/05/11 10:02:32;;;;;;;4.60;4.20;;;30.60;36.30;;;;;;7360632;19;20457;-47
2022/05/11 10:05:09;;;;;;;4.27;3.87;;;30.70;36.40;;;;;;7362277;19;20376;-49
2022/05/11 10:07:47;;;;;;;4.33;4.03;;;30.80;36.50;;;;;;7367073;19;20771;-48
2022/05/11 10:10:27;;;;;;;4.63;4.23;;;31.00;35.60;;;;;;7380116;19;20984;-46
2022/05/11 10:13:01;;;;;;;4.83;4.30;;;30.30;35.90;;;;;;7381441;19;20954;-48
2022/05/11 10:24:25;;;;;;;4.80;4.07;;;30.70;36.30;;;;;;7383400;19;20459;-48
2022/05/11 10:27:06;;;;;;;6.63;4.47;;;30.80;36.00;;;;;;7383667;19;20372;-48
2022/05/11 10:29:53;;;;;;;4.80;4.33;;;30.70;35.90;;;;;;7380825;19;20371;-48
2022/05/11 10:32:27;;;;;;;5.60;4.10;;;30.60;36.20;;;;;;7382182;19;20372;-47
2022/05/11 10:35:08;;;;;;;4.83;4.47;;;30.50;36.20;;;;;;7383014;19;20376;-47
2022/05/11 10:37:45;;;;;;;4.70;4.07;;;30.70;34.90;;;;;;7381925;19;20382;-48
2022/05/11 10:40:22;;;;;;;4.90;4.20;;;31.10;34.40;;;;;;7385126;19;20391;-48
2022/05/11 10:43:08;;;;;;;4.50;4.10;;;31.70;34.20;;;;;;7380537;19;20383;-48
2022/05/11 10:45:47;;;;;;;3.87;3.57;;;32.00;33.20;;;;;;7382593;19;20376;-47
2022/05/11 10:48:35;;;;;;;4.40;3.53;;;31.50;32.00;;;;;;7383727;19;20412;-48
2022/05/11 10:51:12;;;;;;;4.27;3.97;;;31.50;33.60;;;;;;7382844;19;20521;-48
2022/05/11 10:53:46;;;;;;;3.80;3.50;;;31.60;33.60;;;;;;7381610;19;20420;-48
2022/05/11 10:56:39;;;;;;;4.60;4.20;;;31.40;32.50;;;;;;7383563;19;20380;-49
2022/05/11 10:59:52;;;;;;;3.93;3.63;;;31.10;32.60;;;;;;7382173;19;20376;-48
2022/05/11 11:02:57;;;;;;;4.77;3.97;;;30.90;33.20;;;;;;7377381;19;20865;-48
2022/05/11 11:05:32;;;;;;;4.00;3.70;;;31.00;33.90;;;;;;7380353;19;20690;-49
2022/05/11 11:08:17;;;;;;;4.33;3.57;;;31.10;32.40;;;;;;7380332;19;20379;-48
2022/05/11 11:10:52;;;;;;;3.90;3.50;;;31.10;32.20;;;;;;7377862;19;20403;-42
2022/05/11 11:13:42;;;;;;;4.73;3.43;;;31.10;32.20;;;;;;7377420;19;20391;-42
2022/05/11 11:16:16;;;;;;;5.80;3.87;;;31.40;32.60;;;;;;7379563;19;20422;-42
2022/05/11 11:18:49;;;;;;;4.83;3.80;;;31.00;32.40;;;;;;7378861;19;20377;-40
2022/05/11 11:21:23;;;;;;;4.40;4.00;;;30.50;32.40;;;;;;7383838;19;20372;-40
2022/05/11 11:24:14;;;;;;;3.87;3.57;;;30.50;32.40;;;;;;7376332;19;20376;-40
2022/05/11 11:26:53;;;;;;;4.57;3.73;;;30.50;32.70;;;;;;7378999;19;20748;-40
2022/05/11 11:29:29;;;;;;;4.33;3.40;;;30.50;32.90;;;;;;7379312;19;20387;-40
2022/05/11 11:32:20;;;;;;;4.67;4.27;;;30.20;34.10;;;;;;7379741;19;20373;-40
2022/05/11 11:34:54;;;;;;;3.57;3.23;;;30.10;34.90;;;;;;7378266;19;20372;-40
2022/05/11 11:37:43;;;;;;;3.90;3.60;;;30.30;33.90;;;;;;7381243;19;20376;-40
2022/05/11 11:40:26;;;;;;;3.87;3.50;;;30.60;33.70;;;;;;7382191;19;20419;-49
2022/05/11 11:43:38;;;;;;;3.73;3.43;;;30.80;32.80;;;;;;7381120;19;20858;-46
2022/05/11 11:46:06;;;;;;;3.70;3.50;;;30.80;32.80;;;;;;7379803;19;20729;-47
2022/05/11 11:48:42;;;;;;;4.53;4.10;;;31.30;33.30;;;;;;7375710;19;20436;-47
2022/05/11 11:51:32;;;;;;;3.90;3.60;;;31.30;31.80;;;;;;7380149;19;20764;-46
2022/05/11 11:54:04;;;;;;;3.80;3.50;;;31.20;32.00;;;;;;7376749;19;21057;-46
2022/05/11 11:56:38;;;;;;;4.20;3.80;;;31.00;33.20;;;;;;7377087;19;20384;-46
2022/05/11 11:59:10;;;;;;;4.20;3.80;;;30.60;31.70;;;;;;7380543;19;20914;-47
2022/05/11 12:01:43;;;;;;;3.60;3.30;;;30.60;31.60;;;;;;7380716;19;20380;-48
2022/05/11 12:04:27;;;;;;;6.10;2.97;;;30.70;31.20;;;;;;7380088;19;20399;-48
2022/05/11 12:15:19;;;;;;;3.60;3.40;;;31.10;29.70;;;;;;7377744;19;20370;-47
2022/05/11 12:17:51;;;;;;;3.10;2.90;;;30.80;30.00;;;;;;7377993;19;20414;-48
2022/05/11 12:20:29;;;;;;;3.37;3.07;;;30.80;30.50;;;;;;7376928;19;20841;-49
2022/05/11 12:23:03;;;;;;;3.03;2.80;;;31.00;31.50;;;;;;7374272;19;20451;-48
2022/05/11 12:25:36;;;;;;;3.83;2.93;;;31.20;31.00;;;;;;7379181;19;20374;-48
2022/05/11 12:28:22;;;;;;;3.73;2.90;;;31.40;29.20;;;;;;7376885;19;20399;-48
2022/05/11 12:30:52;;;;;;;4.83;3.13;;;31.70;29.70;;;;;;7374583;19;20415;-48
2022/05/11 12:33:24;;;;;;;3.23;2.83;;;31.70;29.40;;;;;;7380697;19;20924;-48
2022/05/11 12:35:59;;;;;;;3.33;2.53;;;31.60;27.90;;;;;;7377986;19;20728;-48
2022/05/11 12:38:32;;;;;;;3.60;2.63;;;31.50;28.10;;;;;;7376966;19;20383;-47
2022/05/11 12:41:08;;;;;;;3.40;3.10;;;31.30;29.60;;;;;;7377709;19;20368;-48
2022/05/11 12:43:40;;;;;;;3.40;3.10;;;31.10;29.90;;;;;;7377195;19;20936;-48
2022/05/11 12:46:15;;;;;;;3.10;2.80;;;31.00;28.30;;;;;;7367802;19;20630;-49
2022/05/11 12:48:55;;;;;;;4.40;2.80;;;30.90;28.40;;;;;;7365666;19;20458;-47
2022/05/11 12:51:32;;;;;;;4.30;2.63;;;31.10;30.00;;;;;;7369438;19;20918;-47
2022/05/11 12:54:08;;;;;;;3.17;2.80;;;31.10;28.70;;;;;;7370581;19;20375;-48
2022/05/11 12:56:40;;;;;;;3.70;2.97;;;31.10;30.00;;;;;;7378066;19;20372;-48
2022/05/11 12:59:20;;;;;;;5.10;2.80;;;31.10;30.00;;;;;;7378312;19;21048;-48
2022/05/11 13:01:50;;;;;;;3.87;2.63;;;31.20;29.60;;;;;;7378882;19;20368;-46
2022/05/11 13:04:22;;;;;;;4.07;2.80;;;31.10;29.30;;;;;;7373856;19;20460;-48
2022/05/11 13:06:59;;;;;;;5.10;3.23;;;31.10;27.80;;;;;;7376370;19;20931;-47
2022/05/11 13:09:37;;;;;;;2.77;2.47;;;31.20;27.10;;;;;;7376268;19;20921;-47
2022/05/11 13:12:09;;;;;;;4.10;2.60;;;31.30;27.10;;;;;;7373511;19;20379;-50
2022/05/11 13:14:47;;;;;;;2.20;2.10;;;31.30;27.30;;;;;;7376822;19;20372;-47
2022/05/11 13:17:22;;;;;;;4.00;2.60;;;31.20;26.70;;;;;;7351560;19;20599;-48
2022/05/11 13:19:57;;;;;;;3.20;2.93;;;31.10;27.50;;;;;;7376534;19;20376;-46
2022/05/11 13:22:31;;;;;;;2.80;2.60;;;30.90;26.90;;;;;;7376483;19;20380;-47
2022/05/11 13:25:02;;;;;;;3.23;2.33;;;30.60;27.00;;;;;;7378917;19;20400;-46
2022/05/11 13:27:39;;;;;;;5.07;3.33;;;30.70;28.10;;;;;;7376058;19;20914;-47
2022/05/11 13:30:14;;;;;;;3.27;2.60;;;30.70;28.30;;;;;;7377349;19;20913;-47
2022/05/11 13:32:48;;;;;;;3.30;2.97;;;30.60;28.10;;;;;;7378022;19;20376;-46
2022/05/11 13:35:24;;;;;;;4.60;3.00;;;30.40;28.20;;;;;;7372811;19;20720;-47
2022/05/11 13:38:04;;;;;;;3.40;2.63;;;30.20;30.60;;;;;;7377795;19;20376;-46
2022/05/11 13:40:41;;;;;;;4.60;2.40;;;30.10;29.50;;;;;;7376761;19;20474;-47
2022/05/11 13:43:20;;;;;;;2.90;2.40;;;29.90;29.60;;;;;;7378136;19;20364;-48
2022/05/11 13:45:58;;;;;;;2.97;2.67;;;29.80;27.60;;;;;;7382811;19;20443;-46
2022/05/11 13:48:27;;;;;;;3.50;2.93;;;29.60;27.50;;;;;;7381510;19;20428;-45
2022/05/11 13:51:09;;;;;;;3.77;3.00;;;29.60;28.00;;;;;;7364226;19;20401;-49
2022/05/11 13:53:47;;;;;;;3.13;2.83;;;29.50;28.30;;;;;;7375486;19;20411;-50
2022/05/11 13:56:25;;;;;;;3.03;2.73;;;29.40;28.50;;;;;;7378309;19;20930;-46
2022/05/11 13:59:16;;;;;;;2.67;2.47;;;29.40;29.40;;;;;;7364587;19;20432;-47
2022/05/11 14:01:48;;;;;;;3.63;2.90;;;29.50;29.20;;;;;;7378017;19;20375;-46
2022/05/11 14:04:25;;;;;;;3.77;3.07;;;29.40;29.30;;;;;;7371343;19;20722;-45